createdAt,value
2022-08-25T00:01:48.053Z,2.20
2022-08-25T00:04:15.069Z,2.33
2022-08-25T00:06:42.250Z,2.40
2022-08-25T00:09:09.655Z,2.30
2022-08-25T00:11:38.009Z,2.13
2022-08-25T00:14:06.536Z,2.13
2022-08-25T00:16:33.457Z,2.20
2022-08-25T00:19:01.504Z,2.23
2022-08-25T00:21:28.332Z,2.50
2022-08-25T00:23:54.689Z,2.33
2022-08-25T00:26:21.370Z,2.13
2022-08-25T00:28:47.790Z,2.03
2022-08-25T00:31:20.222Z,2.10
2022-08-25T00:33:48.079Z,2.63
2022-08-25T00:36:15.659Z,2.00
2022-08-25T00:38:43.446Z,2.23
2022-08-25T00:41:11.336Z,2.30
2022-08-25T00:43:40.604Z,2.10
2022-08-25T00:46:10.518Z,1.97
2022-08-25T00:48:38.688Z,2.73
2022-08-25T00:51:07.522Z,2.17
2022-08-25T00:53:34.077Z,1.80
2022-08-25T00:56:00.937Z,2.30
2022-08-25T00:58:28.367Z,2.00
2022-08-25T01:00:55.683Z,1.90
2022-08-25T01:03:25.237Z,2.30
2022-08-25T01:06:00.510Z,1.90
2022-08-25T01:08:29.138Z,2.07
2022-08-25T01:10:56.948Z,2.30
2022-08-25T01:13:28.879Z,1.97
2022-08-25T01:15:56.219Z,2.07
2022-08-25T01:18:23.251Z,2.03
2022-08-25T01:20:50.476Z,2.40
2022-08-25T01:23:16.852Z,2.40
2022-08-25T01:25:51.550Z,2.13
2022-08-25T01:28:18.780Z,2.50
2022-08-25T01:30:45.219Z,2.20
2022-08-25T01:33:12.005Z,2.30
2022-08-25T01:35:39.071Z,2.17
2022-08-25T01:38:06.304Z,2.13
2022-08-25T01:40:32.863Z,2.50
2022-08-25T01:43:11.721Z,2.10
2022-08-25T01:45:39.495Z,2.60
2022-08-25T01:48:06.960Z,2.03
2022-08-25T01:50:33.928Z,2.23
2022-08-25T01:53:17.672Z,2.23
2022-08-25T01:55:55.262Z,2.23
2022-08-25T01:58:22.745Z,2.33
2022-08-25T02:00:50.146Z,2.20
2022-08-25T02:03:19.054Z,2.40
2022-08-25T02:05:47.506Z,2.73
2022-08-25T02:08:15.060Z,2.30
2022-08-25T02:10:41.619Z,2.43
2022-08-25T02:13:08.863Z,2.60
2022-08-25T02:15:35.342Z,2.30
2022-08-25T02:18:01.756Z,2.53
2022-08-25T02:20:28.808Z,2.43
2022-08-25T02:22:56.808Z,2.20
2022-08-25T02:25:23.434Z,2.67
2022-08-25T02:27:49.830Z,2.70
2022-08-25T02:30:16.433Z,2.50
2022-08-25T02:32:42.894Z,2.20
2022-08-25T02:35:09.528Z,2.50
2022-08-25T02:37:36.119Z,2.30
2022-08-25T02:40:03.528Z,2.57
2022-08-25T02:42:30.040Z,2.30
2022-08-25T02:44:56.996Z,2.70
2022-08-25T02:47:25.700Z,2.93
2022-08-25T02:49:53.831Z,2.63
2022-08-25T02:52:20.300Z,2.73
2022-08-25T02:54:46.848Z,2.43
2022-08-25T02:57:14.132Z,2.53
2022-08-25T02:59:41.344Z,2.30
2022-08-25T03:02:07.786Z,2.57
2022-08-25T03:04:34.225Z,2.60
2022-08-25T03:07:00.659Z,2.70
2022-08-25T03:09:27.062Z,2.43
2022-08-25T03:11:53.594Z,2.67
2022-08-25T03:14:19.968Z,2.73
2022-08-25T03:16:46.660Z,2.80
2022-08-25T03:19:13.722Z,2.83
2022-08-25T03:21:40.118Z,2.60
2022-08-25T03:24:06.919Z,2.63
2022-08-25T03:26:51.778Z,2.80
2022-08-25T03:29:18.335Z,2.90
2022-08-25T03:31:45.347Z,2.90
2022-08-25T03:34:16.870Z,2.80
2022-08-25T03:36:44.468Z,2.70
2022-08-25T03:39:10.879Z,2.80
2022-08-25T03:41:37.544Z,3.30
2022-08-25T03:44:05.683Z,3.30
2022-08-25T03:46:33.705Z,3.27
2022-08-25T03:49:01.154Z,3.17
2022-08-25T03:51:30.012Z,2.70
2022-08-25T03:53:56.584Z,3.47
2022-08-25T03:56:23.015Z,3.43
2022-08-25T03:58:51.288Z,2.93
2022-08-25T04:01:18.324Z,3.27
2022-08-25T04:03:45.054Z,3.30
2022-08-25T04:06:11.524Z,3.17
2022-08-25T04:08:38.248Z,3.53
2022-08-25T04:11:08.703Z,2.77
2022-08-25T04:13:36.077Z,3.40
2022-08-25T04:16:03.221Z,3.10
2022-08-25T04:18:31.190Z,3.37
2022-08-25T04:21:04.434Z,3.80
2022-08-25T04:23:30.833Z,3.73
2022-08-25T04:25:57.358Z,3.47
2022-08-25T04:28:24.023Z,3.50
2022-08-25T04:30:52.160Z,3.50
2022-08-25T04:33:18.710Z,3.50
2022-08-25T04:35:49.809Z,3.20
2022-08-25T04:38:16.234Z,3.20
2022-08-25T04:40:42.660Z,3.40
2022-08-25T04:43:09.095Z,3.93
2022-08-25T04:45:39.500Z,3.63
2022-08-25T04:48:06.586Z,3.67
2022-08-25T04:50:33.096Z,3.50
2022-08-25T04:52:59.798Z,3.40
2022-08-25T04:55:26.169Z,3.73
2022-08-25T04:57:52.577Z,3.57
2022-08-25T05:00:19.115Z,3.40
2022-08-25T05:02:45.494Z,3.87
2022-08-25T05:05:11.853Z,3.50
2022-08-25T05:07:38.274Z,3.60
2022-08-25T05:10:04.812Z,3.23
2022-08-25T05:12:31.475Z,3.80
2022-08-25T05:15:19.041Z,3.40
2022-08-25T05:17:45.445Z,3.50
2022-08-25T05:20:11.836Z,3.60
2022-08-25T05:22:38.228Z,3.87
2022-08-25T05:25:04.764Z,3.83
2022-08-25T05:27:33.571Z,3.60
2022-08-25T05:30:00.008Z,3.63
2022-08-25T05:32:26.510Z,3.57
2022-08-25T05:34:52.865Z,3.60
2022-08-25T05:37:19.303Z,4.90
2022-08-25T05:39:45.742Z,4.10
2022-08-25T05:42:12.279Z,3.90
2022-08-25T05:44:38.655Z,3.30
2022-08-25T05:47:05.388Z,3.13
2022-08-25T05:49:31.824Z,3.77
2022-08-25T05:51:58.199Z,3.30
2022-08-25T05:54:24.577Z,3.30
2022-08-25T05:56:51.140Z,3.97
2022-08-25T05:59:17.594Z,3.93
2022-08-25T06:02:02.419Z,3.97
2022-08-25T06:04:28.832Z,3.13
2022-08-25T06:06:55.621Z,3.50
2022-08-25T06:09:22.472Z,3.57
2022-08-25T06:11:52.827Z,3.47
2022-08-25T06:14:21.057Z,3.40
2022-08-25T06:16:51.386Z,3.80
2022-08-25T06:19:18.048Z,3.40
2022-08-25T06:21:44.516Z,3.47
2022-08-25T06:24:15.149Z,3.50
2022-08-25T06:26:42.008Z,3.27
2022-08-25T06:29:08.501Z,3.63
2022-08-25T06:31:34.942Z,2.90
2022-08-25T06:34:01.544Z,3.80
2022-08-25T06:36:28.260Z,3.13
2022-08-25T06:38:54.669Z,3.60
2022-08-25T06:41:21.052Z,3.70
2022-08-25T06:43:50.797Z,3.20
2022-08-25T06:46:21.383Z,3.43
2022-08-25T06:48:48.497Z,3.43
2022-08-25T06:51:16.091Z,3.43
2022-08-25T06:53:43.151Z,3.90
2022-08-25T06:56:09.596Z,3.83
2022-08-25T06:58:36.600Z,3.70
2022-08-25T07:01:14.997Z,3.83
2022-08-25T07:03:45.950Z,4.40
2022-08-25T07:06:14.112Z,4.17
2022-08-25T07:08:41.134Z,3.90
2022-08-25T07:11:08.348Z,4.60
2022-08-25T07:13:43.438Z,4.47
2022-08-25T07:16:11.235Z,4.10
2022-08-25T07:18:37.846Z,4.17
2022-08-25T07:21:04.287Z,4.50
2022-08-25T07:23:30.690Z,4.60
2022-08-25T07:25:57.406Z,4.60
2022-08-25T07:28:23.976Z,4.73
2022-08-25T07:30:52.176Z,5.03
2022-08-25T07:33:18.711Z,4.50
2022-08-25T07:35:45.299Z,4.50
2022-08-25T07:38:13.055Z,4.40
2022-08-25T07:40:46.062Z,4.20
2022-08-25T07:43:20.705Z,4.17
2022-08-25T07:45:49.010Z,4.40
2022-08-25T07:48:16.374Z,4.30
2022-08-25T07:50:45.319Z,4.00
2022-08-25T07:53:12.431Z,4.38
2022-08-25T07:55:39.341Z,3.92
2022-08-25T07:58:07.102Z,4.40
2022-08-25T08:00:36.754Z,4.03
2022-08-25T08:03:07.010Z,4.20
2022-08-25T08:05:35.703Z,4.47
2022-08-25T08:08:02.648Z,3.95
2022-08-25T08:13:18.412Z,3.60
2022-08-25T08:15:45.331Z,3.72
2022-08-25T08:18:11.819Z,3.47
2022-08-25T08:20:43.124Z,4.30
2022-08-25T08:23:10.351Z,3.65
2022-08-25T08:25:36.733Z,4.20
2022-08-25T08:28:03.399Z,4.15
2022-08-25T08:30:30.197Z,4.00
2022-08-25T08:33:12.848Z,4.20
2022-08-25T08:35:42.778Z,4.20
2022-08-25T08:38:14.552Z,3.90
2022-08-25T08:41:13.881Z,4.10
2022-08-25T08:43:42.172Z,3.80
2022-08-25T08:46:08.630Z,4.17
2022-08-25T08:48:47.223Z,4.30
2022-08-25T08:51:20.299Z,4.03
2022-08-25T08:53:49.628Z,4.20
2022-08-25T08:56:39.313Z,3.70
2022-08-25T08:59:15.932Z,3.73
2022-08-25T09:01:45.537Z,3.57
2022-08-25T09:04:15.925Z,3.57
2022-08-25T09:06:44.633Z,3.70
2022-08-25T09:09:12.742Z,3.90
2022-08-25T09:11:39.089Z,3.60
2022-08-25T09:14:26.095Z,3.47
2022-08-25T09:17:06.230Z,3.87
2022-08-25T09:19:45.008Z,3.80
2022-08-25T09:22:35.665Z,3.57
2022-08-25T09:25:08.628Z,3.90
2022-08-25T09:27:47.308Z,3.37
2022-08-25T09:30:21.335Z,3.33
2022-08-25T09:32:54.077Z,4.33
2022-08-25T09:35:22.793Z,4.00
2022-08-25T09:37:59.906Z,4.30
2022-08-25T09:40:27.846Z,4.13
2022-08-25T09:42:57.857Z,4.10
2022-08-25T09:45:43.690Z,4.50
2022-08-25T09:48:29.064Z,4.00
2022-08-25T09:51:02.401Z,4.33
2022-08-25T09:53:33.762Z,4.60
2022-08-25T09:56:04.622Z,3.95
2022-08-25T09:58:31.456Z,4.20
2022-08-25T10:01:06.497Z,4.27
2022-08-25T10:03:34.321Z,4.45
2022-08-25T10:06:08.013Z,4.65
2022-08-25T10:08:51.557Z,4.15
2022-08-25T10:11:37.934Z,4.55
2022-08-25T10:14:16.696Z,3.90
2022-08-25T10:16:46.990Z,4.47
2022-08-25T10:19:22.345Z,4.40
2022-08-25T10:22:10.963Z,4.90
2022-08-25T10:24:38.555Z,4.37
2022-08-25T10:27:10.448Z,4.20
2022-08-25T10:29:37.312Z,4.20
2022-08-25T10:32:22.788Z,3.83
2022-08-25T10:34:51.723Z,3.97
2022-08-25T10:37:18.365Z,4.00
2022-08-25T10:39:46.894Z,3.97
2022-08-25T10:42:30.822Z,3.90
2022-08-25T10:45:22.394Z,3.70
2022-08-25T10:48:15.244Z,3.55
2022-08-25T10:51:01.162Z,3.65
2022-08-25T10:53:36.998Z,4.22
2022-08-25T10:56:16.468Z,3.67
2022-08-25T10:58:42.911Z,3.88
2022-08-25T11:01:28.943Z,3.40
2022-08-25T11:03:59.357Z,3.85
2022-08-25T11:06:34.259Z,3.45
2022-08-25T11:09:03.450Z,3.60
2022-08-25T11:11:35.093Z,3.63
2022-08-25T11:14:11.597Z,3.30
2022-08-25T11:16:38.253Z,3.30
2022-08-25T11:19:05.557Z,3.10
2022-08-25T11:21:53.518Z,3.30
2022-08-25T11:24:19.884Z,3.35
2022-08-25T11:26:51.645Z,3.42
2022-08-25T11:29:19.687Z,3.13
2022-08-25T11:31:52.726Z,3.22
2022-08-25T11:34:20.561Z,2.85
2022-08-25T11:36:57.516Z,3.47
2022-08-25T11:39:31.179Z,3.80
2022-08-25T11:42:02.379Z,3.75
2022-08-25T11:44:53.076Z,3.67
2022-08-25T11:47:21.764Z,3.67
2022-08-25T11:49:53.266Z,6.50
2022-08-25T11:52:39.921Z,3.42
2022-08-25T11:55:15.019Z,4.13
2022-08-25T11:57:42.464Z,4.32
2022-08-25T12:00:13.974Z,3.80
2022-08-25T12:02:45.780Z,3.13
2022-08-25T12:05:32.463Z,3.00
2022-08-25T12:08:20.525Z,3.10
2022-08-25T12:10:56.290Z,3.47
2022-08-25T12:13:25.695Z,2.85
2022-08-25T12:15:52.070Z,2.80
2022-08-25T12:18:22.710Z,2.67
2022-08-25T12:20:55.381Z,3.35
2022-08-25T12:23:28.877Z,3.28
2022-08-25T12:25:55.610Z,2.92
2022-08-25T12:28:45.315Z,3.67
2022-08-25T12:31:31.672Z,2.92
2022-08-25T12:34:18.087Z,3.83
2022-08-25T12:36:55.877Z,3.17
2022-08-25T12:39:28.836Z,3.72
2022-08-25T12:42:05.446Z,3.85
2022-08-25T12:44:40.170Z,3.80
2022-08-25T12:47:12.707Z,3.40
2022-08-25T12:49:39.229Z,3.10
2022-08-25T12:52:17.121Z,3.17
2022-08-25T12:54:58.119Z,2.95
2022-08-25T12:57:33.704Z,3.47
2022-08-25T13:00:05.545Z,3.05
2022-08-25T13:02:51.560Z,2.72
2022-08-25T13:05:21.539Z,3.00
2022-08-25T13:07:48.363Z,2.80
2022-08-25T13:10:24.700Z,3.08
2022-08-25T13:13:00.486Z,3.10
2022-08-25T13:15:37.165Z,3.00
2022-08-25T13:18:19.348Z,3.05
2022-08-25T13:20:47.102Z,3.55
2022-08-25T13:23:16.800Z,3.65
2022-08-25T13:25:50.996Z,3.28
2022-08-25T13:28:20.789Z,3.05
2022-08-25T13:30:55.623Z,3.30
2022-08-25T13:33:23.780Z,2.83
2022-08-25T13:36:14.005Z,3.33
2022-08-25T13:38:41.114Z,3.00
2022-08-25T13:41:16.729Z,2.70
2022-08-25T13:43:44.601Z,2.78
2022-08-25T13:46:12.329Z,2.88
2022-08-25T13:48:49.451Z,2.88
2022-08-25T13:51:22.425Z,2.70
2022-08-25T13:53:50.498Z,2.80
2022-08-25T13:56:23.775Z,3.22
2022-08-25T13:58:50.201Z,3.45
2022-08-25T14:01:48.635Z,3.10
2022-08-25T14:04:27.551Z,3.08
2022-08-25T14:07:05.987Z,3.13
2022-08-25T14:09:39.796Z,2.85
2022-08-25T14:12:07.719Z,3.38
2022-08-25T14:14:35.978Z,2.90
2022-08-25T14:17:21.932Z,3.15
2022-08-25T14:19:55.290Z,2.90
2022-08-25T14:22:21.923Z,3.10
2022-08-25T14:24:48.440Z,3.05
2022-08-25T14:27:14.838Z,3.03
2022-08-25T14:29:41.401Z,2.90
2022-08-25T14:32:09.229Z,3.30
2022-08-25T14:34:37.384Z,3.55
2022-08-25T14:37:10.960Z,3.22
2022-08-25T14:39:37.500Z,3.20
2022-08-25T14:42:05.235Z,3.33
2022-08-25T14:44:32.757Z,3.38
2022-08-25T14:47:00.167Z,3.05
2022-08-25T14:49:29.751Z,3.25
2022-08-25T14:51:58.137Z,2.88
2022-08-25T14:54:26.868Z,3.05
2022-08-25T14:56:53.638Z,2.90
2022-08-25T14:59:20.030Z,3.25
2022-08-25T15:01:47.103Z,3.10
2022-08-25T15:04:22.263Z,3.10
2022-08-25T15:06:51.155Z,3.33
2022-08-25T15:09:18.328Z,3.13
2022-08-25T15:11:46.952Z,3.00
2022-08-25T15:14:15.701Z,2.85
2022-08-25T15:16:45.354Z,3.33
2022-08-25T15:19:14.530Z,2.80
2022-08-25T15:21:43.076Z,3.00
2022-08-25T15:24:10.130Z,2.75
2022-08-25T15:26:42.264Z,3.00
2022-08-25T15:29:08.999Z,2.78
2022-08-25T15:31:36.070Z,2.97
2022-08-25T15:34:02.457Z,2.72
2022-08-25T15:36:28.971Z,2.80
2022-08-25T15:38:55.401Z,3.22
2022-08-25T15:41:23.171Z,2.83
2022-08-25T15:43:54.312Z,2.57
2022-08-25T15:46:23.888Z,2.63
2022-08-25T15:48:50.582Z,3.10
2022-08-25T15:51:18.771Z,2.60
2022-08-25T15:53:46.205Z,2.50
2022-08-25T15:56:16.000Z,2.40
2022-08-25T15:58:53.235Z,2.70
2022-08-25T16:01:21.595Z,2.90
2022-08-25T16:03:51.319Z,2.57
2022-08-25T16:06:18.494Z,2.77
2022-08-25T16:08:44.980Z,2.70
2022-08-25T16:11:19.049Z,3.30
2022-08-25T16:13:46.546Z,2.53
2022-08-25T16:16:15.432Z,3.27
2022-08-25T16:18:43.627Z,2.83
2022-08-25T16:21:14.213Z,3.30
2022-08-25T16:23:41.016Z,2.87
2022-08-25T16:26:10.172Z,3.07
2022-08-25T16:28:40.413Z,3.23
2022-08-25T16:31:10.963Z,3.13
2022-08-25T16:33:37.477Z,2.97
2022-08-25T16:36:05.077Z,2.90
2022-08-25T16:38:33.776Z,3.07
2022-08-25T16:41:01.355Z,2.83
2022-08-25T16:43:29.370Z,2.90
2022-08-25T16:46:00.363Z,2.77
2022-08-25T16:48:27.999Z,2.70
2022-08-25T16:50:54.458Z,2.50
2022-08-25T16:53:39.457Z,2.87
2022-08-25T16:56:08.607Z,2.93
2022-08-25T16:58:37.801Z,3.00
2022-08-25T17:01:09.550Z,3.20
2022-08-25T17:03:37.068Z,3.20
2022-08-25T17:06:03.627Z,3.17
2022-08-25T17:08:30.744Z,2.93
2022-08-25T17:11:23.574Z,3.37
2022-08-25T17:13:52.060Z,3.13
2022-08-25T17:16:19.207Z,2.97
2022-08-25T17:18:47.778Z,2.73
2022-08-25T17:21:16.184Z,3.03
2022-08-25T17:23:51.479Z,3.20
2022-08-25T17:26:17.983Z,3.03
2022-08-25T17:28:44.517Z,3.20
2022-08-25T17:31:12.006Z,3.47
2022-08-25T17:33:38.462Z,3.63
2022-08-25T17:36:05.613Z,3.27
2022-08-25T17:38:33.445Z,3.23
2022-08-25T17:41:01.707Z,2.97
2022-08-25T17:43:29.204Z,3.20
2022-08-25T17:45:56.876Z,3.00
2022-08-25T17:48:24.468Z,3.27
2022-08-25T17:50:53.344Z,2.93
2022-08-25T17:53:19.747Z,2.80
2022-08-25T17:55:46.152Z,3.70
2022-08-25T17:58:13.909Z,3.60
2022-08-25T18:00:43.897Z,3.50
2022-08-25T18:03:10.596Z,3.47
2022-08-25T18:05:38.003Z,3.43
2022-08-25T18:08:05.507Z,3.20
2022-08-25T18:10:37.153Z,3.50
2022-08-25T18:13:03.650Z,3.40
2022-08-25T18:15:30.269Z,3.53
2022-08-25T18:17:57.230Z,3.40
2022-08-25T18:20:23.889Z,3.60
2022-08-25T18:22:50.520Z,3.40
2022-08-25T18:25:16.963Z,3.80
2022-08-25T18:27:43.383Z,3.73
2022-08-25T18:30:10.193Z,3.57
2022-08-25T18:32:36.973Z,4.00
2022-08-25T18:35:04.163Z,3.77
2022-08-25T18:37:49.841Z,4.33
2022-08-25T18:40:22.525Z,3.60
2022-08-25T18:43:09.442Z,4.17
2022-08-25T18:45:41.040Z,3.47
2022-08-25T18:48:07.875Z,3.33
2022-08-25T18:50:35.739Z,3.60
2022-08-25T18:53:02.845Z,3.10
2022-08-25T18:55:32.638Z,3.20
2022-08-25T18:57:59.238Z,3.60
2022-08-25T19:00:27.339Z,3.87
2022-08-25T19:02:55.098Z,4.10
2022-08-25T19:05:25.984Z,3.63
2022-08-25T19:07:52.487Z,3.97
2022-08-25T19:10:19.708Z,3.60
2022-08-25T19:12:46.129Z,4.23
2022-08-25T19:15:12.933Z,3.83
2022-08-25T19:17:39.333Z,3.80
2022-08-25T19:20:11.395Z,4.10
2022-08-25T19:22:41.970Z,3.63
2022-08-25T19:25:09.475Z,3.77
2022-08-25T19:27:35.911Z,3.90
2022-08-25T19:30:03.923Z,4.03
2022-08-25T19:32:30.329Z,4.23
2022-08-25T19:34:56.833Z,4.10
2022-08-25T19:37:25.069Z,4.20
2022-08-25T19:39:54.020Z,3.70
2022-08-25T19:42:37.367Z,4.03
2022-08-25T19:45:06.396Z,4.13
2022-08-25T19:47:33.063Z,4.20
2022-08-25T19:49:59.615Z,3.67
2022-08-25T19:52:26.634Z,4.43
2022-08-25T19:54:53.577Z,4.27
2022-08-25T19:57:27.811Z,3.90
2022-08-25T20:00:08.057Z,3.93
2022-08-25T20:02:38.493Z,4.10
2022-08-25T20:05:06.239Z,4.37
2022-08-25T20:07:32.735Z,4.30
2022-08-25T20:09:59.851Z,4.30
2022-08-25T20:12:26.993Z,3.97
2022-08-25T20:14:55.346Z,4.20
2022-08-25T20:17:24.712Z,4.00
2022-08-25T20:19:57.582Z,4.27
2022-08-25T20:22:29.326Z,4.07
2022-08-25T20:24:57.800Z,3.77
2022-08-25T20:27:26.368Z,4.00
2022-08-25T20:29:52.887Z,3.90
2022-08-25T20:32:20.219Z,4.00
2022-08-25T20:34:46.843Z,4.10
2022-08-25T20:37:13.258Z,4.20
2022-08-25T20:39:41.063Z,3.93
2022-08-25T20:42:07.665Z,3.93
2022-08-25T20:44:41.781Z,4.20
2022-08-25T20:47:10.234Z,3.83
2022-08-25T20:49:37.899Z,4.13
2022-08-25T20:52:05.002Z,4.53
2022-08-25T20:54:31.676Z,3.97
2022-08-25T20:56:59.340Z,4.30
2022-08-25T20:59:26.980Z,4.70
2022-08-25T21:01:53.960Z,4.37
2022-08-25T21:04:22.038Z,4.30
2022-08-25T21:06:49.546Z,4.67
2022-08-25T21:09:17.448Z,4.57
2022-08-25T21:11:44.949Z,4.70
2022-08-25T21:14:12.036Z,3.77
2022-08-25T21:16:38.941Z,4.30
2022-08-25T21:19:06.016Z,4.73
2022-08-25T21:21:37.484Z,4.23
2022-08-25T21:24:05.273Z,4.30
2022-08-25T21:26:35.330Z,4.10
2022-08-25T21:29:03.841Z,4.33
2022-08-25T21:31:30.870Z,4.00
2022-08-25T21:33:57.778Z,4.13
2022-08-25T21:36:26.185Z,4.27
2022-08-25T21:38:53.947Z,4.97
2022-08-25T21:41:22.893Z,5.40
2022-08-25T21:43:50.060Z,4.97
2022-08-25T21:46:18.329Z,4.53
2022-08-25T21:48:46.569Z,4.27
2022-08-25T21:51:14.803Z,4.63
2022-08-25T21:53:41.219Z,4.27
2022-08-25T21:56:09.117Z,4.17
2022-08-25T21:58:36.170Z,4.40
2022-08-25T22:01:06.691Z,3.90
2022-08-25T22:03:37.601Z,4.80
2022-08-25T22:06:05.503Z,4.33
2022-08-25T22:08:32.600Z,4.70
2022-08-25T22:11:00.241Z,4.30
2022-08-25T22:13:27.593Z,4.90
2022-08-25T22:15:54.394Z,4.70
2022-08-25T22:18:21.531Z,4.43
2022-08-25T22:20:48.608Z,4.93
2022-08-25T22:23:20.336Z,4.90
2022-08-25T22:25:47.711Z,4.70
2022-08-25T22:28:15.727Z,4.97
2022-08-25T22:30:43.967Z,4.87
2022-08-25T22:33:10.533Z,4.77
2022-08-25T22:35:37.235Z,4.67
2022-08-25T22:38:06.137Z,4.70
2022-08-25T22:40:34.632Z,4.63
2022-08-25T22:43:01.469Z,4.80
2022-08-25T22:45:27.992Z,5.40
2022-08-25T22:47:55.261Z,4.93
2022-08-25T22:50:21.684Z,5.37
2022-08-25T22:52:48.598Z,5.40
2022-08-25T22:55:15.462Z,5.27
2022-08-25T22:57:43.010Z,5.00
2022-08-25T23:00:11.032Z,5.30
2022-08-25T23:02:37.498Z,4.70
2022-08-25T23:05:04.143Z,4.70
2022-08-25T23:07:34.784Z,4.90
2022-08-25T23:10:03.232Z,5.03
2022-08-25T23:12:29.931Z,5.10
2022-08-25T23:14:56.347Z,5.13
2022-08-25T23:17:22.799Z,5.10
2022-08-25T23:19:49.491Z,4.80
2022-08-25T23:22:17.461Z,4.90
2022-08-25T23:24:45.520Z,5.23
2022-08-25T23:27:14.639Z,4.90
2022-08-25T23:29:43.455Z,5.17
2022-08-25T23:32:10.551Z,4.77
2022-08-25T23:34:42.820Z,5.07
2022-08-25T23:37:13.310Z,5.47
2022-08-25T23:39:45.584Z,5.00
2022-08-25T23:42:12.129Z,5.10
2022-08-25T23:44:38.550Z,5.27
2022-08-25T23:47:06.733Z,5.33
2022-08-25T23:49:33.347Z,4.97
2022-08-25T23:51:59.904Z,4.90
2022-08-25T23:54:31.319Z,5.50
2022-08-25T23:56:58.301Z,4.87
2022-08-25T23:59:25.637Z,5.23
